Time;durP1;ratioP1;P1;durP2;ratioP2;P2;SDS_P1;SDS_P2;PMS_P1;PMS_P2;Temp;Humidity;BMP_temperature;BMP_pressure;BME280_temperature;BME280_humidity;BME280_pressure;Samples;Min_cycle;Max_cycle;Signal;HPM_P1;HPM_P2
2020/12/28 00:01:40;;;;;;;4.88;2.03;;;1.50;99.90;;;;;;4910281;28;21153;-84
2020/12/28 00:04:03;;;;;;;7.10;2.63;;;1.50;99.90;;;;;;4920008;28;20097;-83
2020/12/28 00:06:27;;;;;;;7.88;2.25;;;1.50;99.90;;;;;;4917972;28;20566;-83
2020/12/28 00:08:50;;;;;;;6.40;2.42;;;1.50;99.90;;;;;;4920649;28;20124;-83
2020/12/28 00:11:17;;;;;;;6.80;2.03;;;1.50;99.90;;;;;;4923665;28;20117;-84
2020/12/28 00:13:41;;;;;;;7.03;2.80;;;;;;;;;;4920090;28;20104;-84
2020/12/28 00:16:04;;;;;;;3.38;1.83;;;1.50;99.90;;;;;;4921762;28;20091;-83
2020/12/28 00:18:27;;;;;;;5.60;2.15;;;1.60;99.90;;;;;;4923810;28;20598;-85
2020/12/28 00:20:50;;;;;;;8.35;3.03;;;1.60;99.90;;;;;;4921774;28;20112;-83
2020/12/28 00:23:14;;;;;;;8.38;2.65;;;;;;;;;;4912815;28;20170;-83
2020/12/28 00:25:39;;;;;;;4.72;1.75;;;1.60;99.90;;;;;;4918522;28;20527;-84
2020/12/28 00:28:03;;;;;;;8.07;2.72;;;1.60;99.90;;;;;;4924928;28;20110;-84
2020/12/28 00:30:26;;;;;;;6.75;3.03;;;1.60;99.90;;;;;;4921025;28;20090;-84
2020/12/28 00:32:49;;;;;;;7.07;2.58;;;1.70;99.90;;;;;;4925592;28;20094;-83
2020/12/28 00:35:13;;;;;;;4.88;2.53;;;1.70;99.90;;;;;;4909934;28;20185;-83
2020/12/28 00:37:36;;;;;;;5.35;1.90;;;1.70;99.90;;;;;;4921911;28;20095;-83
2020/12/28 00:40:00;;;;;;;3.70;1.77;;;1.70;99.90;;;;;;4904181;28;20142;-81
2020/12/28 00:42:24;;;;;;;6.82;2.55;;;1.70;99.90;;;;;;4919996;28;20514;-83
2020/12/28 00:44:48;;;;;;;5.68;2.22;;;1.70;99.90;;;;;;4915326;28;20187;-83
2020/12/28 00:47:11;;;;;;;5.38;2.15;;;1.60;99.90;;;;;;4917441;28;20097;-82
2020/12/28 00:49:34;;;;;;;9.30;2.97;;;1.70;99.90;;;;;;4923180;28;20132;-82
2020/12/28 00:51:57;;;;;;;5.75;2.08;;;1.70;99.90;;;;;;4919905;28;20094;-83
2020/12/28 00:54:21;;;;;;;6.72;2.33;;;1.80;99.90;;;;;;4919903;28;20096;-83
2020/12/28 00:56:49;;;;;;;5.28;2.40;;;1.80;99.90;;;;;;4895952;28;20115;-82
2020/12/28 00:59:13;;;;;;;6.93;2.72;;;1.80;99.90;;;;;;4908258;28;20092;-84
2020/12/28 01:01:37;;;;;;;6.70;2.83;;;1.80;99.90;;;;;;4921895;28;20088;-82
2020/12/28 01:04:01;;;;;;;5.80;2.53;;;1.80;99.90;;;;;;4917063;28;20506;-83
2020/12/28 01:06:24;;;;;;;7.28;3.00;;;1.80;99.90;;;;;;4917966;28;20088;-83
2020/12/28 01:08:47;;;;;;;8.13;2.30;;;1.70;99.90;;;;;;4920765;28;20554;-83
2020/12/28 01:11:10;;;;;;;7.63;3.10;;;1.80;99.90;;;;;;4916762;28;20173;-81
2020/12/28 01:13:35;;;;;;;6.90;2.78;;;;;;;;;;4916188;28;20083;-82
2020/12/28 01:15:58;;;;;;;6.20;2.60;;;1.90;99.90;;;;;;4911586;28;20100;-82
2020/12/28 01:18:21;;;;;;;6.20;2.47;;;;;;;;;;4916962;28;20119;-82
2020/12/28 01:20:43;;;;;;;4.25;1.88;;;1.90;99.90;;;;;;4918638;28;20181;-83
2020/12/28 01:23:07;;;;;;;11.23;3.22;;;1.90;99.90;;;;;;4917103;28;20106;-81
2020/12/28 01:25:31;;;;;;;6.40;2.22;;;1.90;99.90;;;;;;4917103;28;20102;-83
2020/12/28 01:27:54;;;;;;;6.57;2.67;;;2.00;99.90;;;;;;4915137;28;20097;-83
2020/12/28 01:30:19;;;;;;;7.10;3.22;;;2.00;99.90;;;;;;4915988;28;20123;-84
2020/12/28 01:32:44;;;;;;;6.38;2.63;;;2.00;99.90;;;;;;4916942;28;20090;-82
2020/12/28 01:35:07;;;;;;;8.85;2.85;;;2.00;99.90;;;;;;4920153;28;20108;-83
2020/12/28 01:37:30;;;;;;;11.70;3.88;;;2.00;99.90;;;;;;4921795;28;20115;-84
2020/12/28 01:39:53;;;;;;;8.45;2.95;;;2.00;99.90;;;;;;4907539;28;20149;-83
2020/12/28 01:42:16;;;;;;;7.88;2.90;;;2.00;99.90;;;;;;4916403;28;20101;-83
2020/12/28 01:44:41;;;;;;;11.45;2.78;;;2.00;99.90;;;;;;4919297;28;20109;-84
2020/12/28 01:47:05;;;;;;;11.02;2.92;;;;;;;;;;4910501;28;20084;-83
2020/12/28 01:49:28;;;;;;;4.28;2.05;;;2.00;99.90;;;;;;4919118;28;20097;-83
2020/12/28 01:51:52;;;;;;;7.78;2.70;;;2.00;99.90;;;;;;4916131;28;20117;-83
2020/12/28 01:54:15;;;;;;;6.97;2.88;;;2.00;99.90;;;;;;4913675;28;20086;-83
2020/12/28 01:56:41;;;;;;;6.13;2.80;;;2.00;99.90;;;;;;4922231;28;20085;-83
2020/12/28 01:59:04;;;;;;;8.32;3.00;;;2.00;99.90;;;;;;4910041;28;20087;-81
2020/12/28 02:01:35;;;;;;;8.82;2.92;;;2.00;99.90;;;;;;4919319;28;20166;-82
2020/12/28 02:04:00;;;;;;;7.45;2.75;;;2.00;99.90;;;;;;4922294;28;20096;-82
2020/12/28 02:06:24;;;;;;;5.85;2.53;;;2.00;99.90;;;;;;4921679;28;20122;-82
2020/12/28 02:08:47;;;;;;;8.25;3.22;;;;;;;;;;4901832;28;20170;-83
2020/12/28 02:11:10;;;;;;;6.18;3.00;;;2.00;99.90;;;;;;4906437;28;20095;-81
2020/12/28 02:13:34;;;;;;;9.20;3.22;;;2.10;99.90;;;;;;4907888;28;20096;-81
2020/12/28 02:15:57;;;;;;;7.75;2.80;;;2.10;99.90;;;;;;4915777;28;20111;-82
2020/12/28 02:18:22;;;;;;;11.57;2.85;;;;;;;;;;4916221;28;20110;-83
2020/12/28 02:20:46;;;;;;;7.40;2.60;;;2.10;99.90;;;;;;4917947;28;20309;-83
2020/12/28 02:23:12;;;;;;;8.85;3.33;;;2.10;99.90;;;;;;4918651;28;20589;-83
2020/12/28 02:25:36;;;;;;;5.90;2.88;;;2.10;99.90;;;;;;4917566;28;20141;-83
2020/12/28 02:27:59;;;;;;;9.35;3.00;;;2.20;99.90;;;;;;4902417;28;20525;-82
2020/12/28 02:30:22;;;;;;;8.93;3.08;;;2.20;99.90;;;;;;4919338;28;20185;-82
2020/12/28 02:32:45;;;;;;;9.02;3.33;;;2.20;99.90;;;;;;4916618;28;20180;-82
2020/12/28 02:35:08;;;;;;;5.50;2.88;;;2.20;99.90;;;;;;4920677;28;20453;-83
2020/12/28 02:37:32;;;;;;;9.52;3.80;;;2.20;99.90;;;;;;4918890;28;20182;-82
2020/12/28 02:39:55;;;;;;;5.85;2.67;;;2.30;99.90;;;;;;4919574;28;20086;-82
2020/12/28 02:42:18;;;;;;;7.97;2.83;;;2.20;99.90;;;;;;4917343;28;20083;-83
2020/12/28 02:44:41;;;;;;;4.70;2.40;;;2.30;99.90;;;;;;4925759;28;20099;-82
2020/12/28 02:47:05;;;;;;;7.15;2.72;;;2.30;99.90;;;;;;4923379;28;20547;-83
2020/12/28 02:49:28;;;;;;;8.20;3.17;;;2.30;99.90;;;;;;4915772;28;20093;-83
2020/12/28 02:51:51;;;;;;;7.55;2.92;;;2.30;99.90;;;;;;4917924;28;20093;-82
2020/12/28 02:54:15;;;;;;;6.85;3.55;;;2.30;99.90;;;;;;4914847;28;20178;-83
2020/12/28 02:56:39;;;;;;;6.40;3.00;;;2.30;99.90;;;;;;4918759;28;20120;-82
2020/12/28 02:59:03;;;;;;;8.15;3.30;;;2.30;99.90;;;;;;4913122;28;20536;-82
2020/12/28 03:01:27;;;;;;;11.40;3.97;;;2.30;99.90;;;;;;4915250;28;20582;-83
2020/12/28 03:03:50;;;;;;;5.82;2.70;;;2.30;99.90;;;;;;4916921;28;20167;-82
2020/12/28 03:06:13;;;;;;;8.27;3.75;;;2.30;99.90;;;;;;4915745;28;20126;-82
2020/12/28 03:08:36;;;;;;;10.45;3.28;;;2.30;99.90;;;;;;4911839;28;20218;-83
2020/12/28 03:11:01;;;;;;;9.82;3.90;;;2.20;99.90;;;;;;4914257;28;20091;-83
2020/12/28 03:13:25;;;;;;;8.60;3.20;;;;;;;;;;4914792;28;20179;-83
2020/12/28 03:15:48;;;;;;;10.35;3.50;;;2.20;99.90;;;;;;4920926;28;20566;-83
2020/12/28 03:18:12;;;;;;;8.77;3.30;;;2.20;99.90;;;;;;4915986;28;20090;-82
2020/12/28 03:20:35;;;;;;;9.18;3.22;;;2.10;99.90;;;;;;4919513;28;20093;-83
2020/12/28 03:22:58;;;;;;;9.75;3.33;;;2.20;99.90;;;;;;4919647;28;20086;-83
2020/12/28 03:25:21;;;;;;;8.38;3.63;;;2.20;99.90;;;;;;4917699;28;20509;-83
2020/12/28 03:27:45;;;;;;;9.70;3.72;;;2.20;99.90;;;;;;4898671;28;20091;-82
2020/12/28 03:30:09;;;;;;;12.70;3.78;;;2.10;99.90;;;;;;4919761;28;20099;-82
2020/12/28 03:32:32;;;;;;;10.93;3.35;;;2.00;99.90;;;;;;4913754;28;20097;-83
2020/12/28 03:34:55;;;;;;;7.82;3.53;;;2.00;99.90;;;;;;4915683;28;20095;-82
2020/12/28 03:37:18;;;;;;;8.38;3.20;;;1.90;99.90;;;;;;4917914;28;20141;-83
2020/12/28 03:39:42;;;;;;;6.35;3.08;;;1.90;99.90;;;;;;4923135;28;20085;-83
2020/12/28 03:42:05;;;;;;;11.07;4.43;;;1.90;99.90;;;;;;4915982;28;20217;-83
2020/12/28 03:44:28;;;;;;;10.48;3.33;;;1.90;99.90;;;;;;4921513;28;20103;-82
2020/12/28 03:46:52;;;;;;;8.95;3.97;;;1.80;99.90;;;;;;4905982;28;20144;-83
2020/12/28 03:49:15;;;;;;;9.02;3.13;;;1.80;99.90;;;;;;4919007;28;20172;-83
2020/12/28 03:51:38;;;;;;;10.43;3.85;;;1.80;99.90;;;;;;4921325;28;20120;-82
2020/12/28 03:54:01;;;;;;;11.18;3.70;;;1.80;99.90;;;;;;4923274;28;20089;-82
2020/12/28 03:56:25;;;;;;;12.10;3.65;;;1.80;99.90;;;;;;4923444;28;20148;-83
2020/12/28 03:58:49;;;;;;;9.48;3.15;;;1.80;99.90;;;;;;4917997;28;20095;-83
2020/12/28 04:01:12;;;;;;;8.13;3.83;;;;;;;;;;4918657;28;20093;-83
2020/12/28 04:03:37;;;;;;;12.98;3.65;;;1.80;99.90;;;;;;4920724;28;20471;-83
2020/12/28 04:06:01;;;;;;;6.43;2.53;;;1.70;99.90;;;;;;4917697;28;20103;-83
2020/12/28 04:08:24;;;;;;;9.00;3.55;;;1.80;99.90;;;;;;4913755;28;20089;-82
2020/12/28 04:10:47;;;;;;;8.93;4.22;;;1.80;99.90;;;;;;4919035;28;20160;-82
2020/12/28 04:13:11;;;;;;;7.10;3.22;;;1.70;99.90;;;;;;4915163;28;20553;-83
2020/12/28 04:15:35;;;;;;;7.82;3.97;;;1.80;99.90;;;;;;4922325;28;20086;-83
2020/12/28 04:18:00;;;;;;;6.38;3.10;;;1.80;99.90;;;;;;4922926;28;20602;-83
2020/12/28 04:20:25;;;;;;;11.88;3.78;;;1.80;99.90;;;;;;4916713;28;20181;-83
2020/12/28 04:22:48;;;;;;;8.32;3.38;;;1.80;99.90;;;;;;4917244;28;20095;-83
2020/12/28 04:25:14;;;;;;;4.60;1.98;;;1.80;99.90;;;;;;4918150;28;20104;-83
2020/12/28 04:27:38;;;;;;;10.60;3.75;;;1.90;99.90;;;;;;4918518;28;20094;-82
2020/12/28 04:30:01;;;;;;;7.10;3.42;;;1.90;99.90;;;;;;4917796;28;20091;-84
2020/12/28 04:32:24;;;;;;;6.90;3.63;;;1.80;99.90;;;;;;4919119;28;20460;-83
2020/12/28 04:34:53;;;;;;;10.00;3.45;;;1.80;99.90;;;;;;4923710;28;20106;-83
2020/12/28 04:37:18;;;;;;;12.77;4.22;;;;;;;;;;4922550;28;20136;-82
2020/12/28 04:39:42;;;;;;;5.18;2.70;;;1.80;99.90;;;;;;4926477;28;20107;-82
2020/12/28 04:42:05;;;;;;;7.40;3.55;;;1.80;99.90;;;;;;4916227;28;22200;-82
2020/12/28 04:44:30;;;;;;;10.40;4.18;;;1.80;99.90;;;;;;4918534;28;20086;-83
2020/12/28 04:46:54;;;;;;;10.85;4.35;;;1.80;99.90;;;;;;4921581;28;20091;-82
2020/12/28 04:49:18;;;;;;;11.90;3.58;;;1.80;99.90;;;;;;4915744;28;20182;-82
2020/12/28 04:51:41;;;;;;;10.70;3.60;;;1.80;99.90;;;;;;4919572;28;20458;-82
2020/12/28 04:54:06;;;;;;;8.07;3.15;;;1.80;99.90;;;;;;4917649;28;20089;-83
2020/12/28 04:56:29;;;;;;;11.68;5.18;;;1.80;99.90;;;;;;4915761;28;20091;-83
2020/12/28 04:58:53;;;;;;;13.52;4.45;;;1.80;99.90;;;;;;4897831;28;20178;-83
2020/12/28 05:01:16;;;;;;;11.30;4.88;;;1.80;99.90;;;;;;4916892;28;21523;-82
2020/12/28 05:03:40;;;;;;;9.73;3.90;;;1.80;99.90;;;;;;4913229;28;20096;-83
2020/12/28 05:06:04;;;;;;;6.53;3.17;;;1.80;99.90;;;;;;4919709;28;20133;-83
2020/12/28 05:08:27;;;;;;;10.07;4.00;;;1.80;99.90;;;;;;4914787;28;20151;-83
2020/12/28 05:10:52;;;;;;;6.97;3.00;;;1.80;99.90;;;;;;4917852;28;20182;-82
2020/12/28 05:13:18;;;;;;;12.52;4.10;;;1.80;99.90;;;;;;4915505;28;20597;-82
2020/12/28 05:15:50;;;;;;;9.90;4.18;;;1.80;99.90;;;;;;4921739;28;20084;-82
2020/12/28 05:18:16;;;;;;;13.40;4.20;;;1.80;99.90;;;;;;4921436;28;20112;-82
2020/12/28 05:20:45;;;;;;;17.25;3.72;;;1.80;99.90;;;;;;4918597;28;20143;-81
2020/12/28 05:23:08;;;;;;;11.63;4.20;;;1.70;99.90;;;;;;4916565;28;20563;-82
2020/12/28 05:25:32;;;;;;;10.13;4.45;;;1.80;99.90;;;;;;4916758;28;20567;-82
2020/12/28 05:27:59;;;;;;;10.15;4.32;;;1.80;99.90;;;;;;4916855;28;20211;-82
2020/12/28 05:30:25;;;;;;;10.73;5.25;;;1.80;99.90;;;;;;4920436;28;20138;-82
2020/12/28 05:32:48;;;;;;;15.68;6.10;;;1.80;99.90;;;;;;4917630;28;20097;-82
2020/12/28 05:35:14;;;;;;;17.00;6.63;;;1.80;99.90;;;;;;4925341;28;20170;-83
2020/12/28 05:37:38;;;;;;;13.23;5.15;;;1.80;99.90;;;;;;4920656;28;20428;-83
2020/12/28 05:40:01;;;;;;;11.73;4.60;;;1.70;99.90;;;;;;4915741;28;20111;-82
2020/12/28 05:42:24;;;;;;;17.17;5.85;;;1.70;99.90;;;;;;4919548;28;20097;-81
2020/12/28 05:44:49;;;;;;;18.52;5.32;;;1.80;99.90;;;;;;4918115;28;20095;-82
2020/12/28 05:47:13;;;;;;;14.70;5.47;;;1.80;99.90;;;;;;4921489;28;20180;-82
2020/12/28 05:49:39;;;;;;;9.23;4.35;;;1.80;99.90;;;;;;4920207;28;20539;-83
2020/12/28 05:52:03;;;;;;;9.60;4.68;;;1.80;99.90;;;;;;4919267;28;20453;-82
2020/12/28 05:54:28;;;;;;;12.98;5.82;;;1.80;99.90;;;;;;4915349;28;20085;-81
2020/12/28 05:56:51;;;;;;;12.93;5.28;;;1.80;99.90;;;;;;4917680;28;20084;-82
2020/12/28 05:59:15;;;;;;;13.48;5.32;;;1.80;99.90;;;;;;4919299;28;20580;-82
2020/12/28 06:01:44;;;;;;;14.50;5.72;;;1.80;99.90;;;;;;4918501;28;20098;-82
2020/12/28 06:04:08;;;;;;;13.30;4.97;;;1.80;99.90;;;;;;4925390;28;20119;-81
2020/12/28 06:06:34;;;;;;;11.63;4.90;;;;;;;;;;4914606;28;20173;-82
2020/12/28 06:09:00;;;;;;;10.80;5.13;;;1.80;99.90;;;;;;4915912;28;20503;-82
2020/12/28 06:11:23;;;;;;;10.10;4.85;;;1.80;99.90;;;;;;4921589;28;20185;-82
2020/12/28 06:13:46;;;;;;;11.00;4.63;;;1.80;99.90;;;;;;4916957;28;20493;-82
2020/12/28 06:16:10;;;;;;;13.02;4.65;;;1.80;99.90;;;;;;4920371;28;20507;-82
2020/12/28 06:18:35;;;;;;;11.82;5.70;;;1.80;99.90;;;;;;4902640;28;20101;-82
2020/12/28 06:20:59;;;;;;;12.93;5.33;;;1.70;99.90;;;;;;4915690;28;20170;-83
2020/12/28 06:23:26;;;;;;;11.50;5.00;;;1.70;99.90;;;;;;4918654;28;20092;-83
2020/12/28 06:25:53;;;;;;;16.38;5.47;;;1.80;99.90;;;;;;4914624;28;21212;-82
2020/12/28 06:28:23;;;;;;;15.57;5.85;;;1.80;99.90;;;;;;4922764;28;20164;-82
2020/12/28 06:30:46;;;;;;;17.48;5.40;;;1.80;99.90;;;;;;4902345;28;20121;-82
2020/12/28 06:33:09;;;;;;;12.10;5.32;;;1.80;99.90;;;;;;4915881;28;20096;-81
2020/12/28 06:35:34;;;;;;;14.70;6.28;;;1.80;99.90;;;;;;4922306;28;20094;-83
2020/12/28 06:38:01;;;;;;;6.05;2.83;;;1.80;99.90;;;;;;4919354;28;20082;-82
2020/12/28 06:40:31;;;;;;;11.88;5.13;;;1.80;99.90;;;;;;4916846;28;20082;-81
2020/12/28 06:42:54;;;;;;;14.13;5.53;;;1.80;99.90;;;;;;4911978;28;20091;-82
2020/12/28 06:45:17;;;;;;;12.02;5.22;;;1.80;99.90;;;;;;4914313;28;20104;-82
2020/12/28 06:47:42;;;;;;;11.25;5.30;;;1.80;99.90;;;;;;4914894;28;20102;-82
2020/12/28 06:50:06;;;;;;;13.13;5.97;;;1.80;99.90;;;;;;4920471;28;20091;-82
2020/12/28 06:52:31;;;;;;;9.35;5.28;;;1.90;99.90;;;;;;4914400;28;20579;-82
2020/12/28 06:54:55;;;;;;;9.85;4.90;;;;;;;;;;4917842;28;20095;-82
2020/12/28 06:57:23;;;;;;;12.70;5.88;;;1.90;99.90;;;;;;4913891;28;21031;-82
2020/12/28 06:59:49;;;;;;;11.30;5.30;;;1.80;99.90;;;;;;4915581;28;20087;-83
2020/12/28 07:02:12;;;;;;;11.50;5.13;;;1.80;99.90;;;;;;4909705;28;20088;-81
2020/12/28 07:04:39;;;;;;;11.77;5.05;;;1.80;99.90;;;;;;4923151;28;20089;-82
2020/12/28 07:07:04;;;;;;;15.70;5.35;;;1.80;99.90;;;;;;4921258;28;20099;-83
2020/12/28 07:09:29;;;;;;;17.90;6.60;;;1.80;99.90;;;;;;4925040;28;20085;-82
2020/12/28 07:11:52;;;;;;;15.60;6.47;;;1.80;99.90;;;;;;4923692;28;20093;-82
2020/12/28 07:14:18;;;;;;;17.35;6.80;;;1.80;99.90;;;;;;4919228;28;20168;-81
2020/12/28 07:16:41;;;;;;;21.13;7.40;;;1.80;99.90;;;;;;4917425;28;20108;-82
2020/12/28 07:19:06;;;;;;;19.52;6.75;;;1.80;99.90;;;;;;4915643;28;20436;-82
2020/12/28 07:21:29;;;;;;;15.00;6.35;;;1.80;99.90;;;;;;4920009;28;20145;-82
2020/12/28 07:23:53;;;;;;;22.17;8.05;;;;;;;;;;4899637;28;20097;-82
2020/12/28 07:26:19;;;;;;;26.15;8.27;;;1.70;99.90;;;;;;4914153;28;20155;-82
2020/12/28 07:28:47;;;;;;;15.77;6.72;;;1.80;99.90;;;;;;4915837;28;20178;-82
2020/12/28 07:31:12;;;;;;;15.20;5.45;;;1.80;99.90;;;;;;4921370;28;20091;-82
2020/12/28 07:33:44;;;;;;;16.48;6.80;;;1.80;99.90;;;;;;4923192;28;20530;-82
2020/12/28 07:36:09;;;;;;;13.07;5.72;;;1.80;99.90;;;;;;4926313;28;20087;-82
2020/12/28 07:38:32;;;;;;;18.80;6.10;;;1.80;99.90;;;;;;4917956;28;20083;-82
2020/12/28 07:40:56;;;;;;;20.75;6.95;;;1.80;99.90;;;;;;4924006;28;20086;-82
2020/12/28 07:43:20;;;;;;;12.98;5.55;;;;;;;;;;4921339;28;20564;-83
2020/12/28 07:45:43;;;;;;;12.70;5.28;;;1.80;99.90;;;;;;4916501;28;20085;-83
2020/12/28 07:48:13;;;;;;;13.63;5.55;;;1.80;99.90;;;;;;4916573;28;20553;-82
2020/12/28 07:50:39;;;;;;;15.10;5.85;;;1.80;99.90;;;;;;4916156;28;20114;-81
2020/12/28 07:53:10;;;;;;;9.90;5.10;;;1.80;99.90;;;;;;4922413;28;20095;-82
2020/12/28 07:55:39;;;;;;;12.10;5.43;;;1.80;99.90;;;;;;4918427;28;20124;-81
2020/12/28 07:58:16;;;;;;;17.00;6.78;;;1.80;99.90;;;;;;4920456;28;20112;-81
2020/12/28 08:00:45;;;;;;;13.57;5.82;;;1.80;99.90;;;;;;4917659;28;20549;-82
2020/12/28 08:03:27;;;;;;;16.10;6.00;;;1.80;99.90;;;;;;4921481;28;20122;-81
2020/12/28 08:05:54;;;;;;;13.27;5.78;;;1.80;99.90;;;;;;4919538;28;20993;-82
2020/12/28 08:08:21;;;;;;;13.15;5.80;;;1.80;99.90;;;;;;4917966;28;20090;-83
2020/12/28 08:10:51;;;;;;;13.15;5.13;;;1.80;99.90;;;;;;4921276;28;20094;-83
2020/12/28 08:13:24;;;;;;;12.35;5.30;;;1.90;99.90;;;;;;4900227;28;20563;-82
2020/12/28 08:15:48;;;;;;;12.13;4.90;;;1.90;99.90;;;;;;4914342;28;20512;-82
2020/12/28 08:18:13;;;;;;;13.82;6.60;;;1.90;99.90;;;;;;4916912;28;20313;-83
2020/12/28 08:20:36;;;;;;;16.37;5.73;;;1.90;99.90;;;;;;4919350;28;20093;-81
2020/12/28 08:22:59;;;;;;;12.35;5.75;;;2.00;99.90;;;;;;4918691;28;20499;-82
2020/12/28 08:25:28;;;;;;;11.80;5.45;;;2.00;99.90;;;;;;4907427;28;20100;-81
2020/12/28 08:27:51;;;;;;;11.48;5.07;;;2.10;99.90;;;;;;4919509;28;20088;-83
2020/12/28 08:30:15;;;;;;;13.75;5.40;;;2.10;99.90;;;;;;4919628;28;20105;-81
2020/12/28 08:32:40;;;;;;;10.57;4.78;;;;;;;;;;4915271;28;20130;-82
2020/12/28 08:35:05;;;;;;;9.05;4.63;;;2.10;99.90;;;;;;4919137;28;20086;-82
2020/12/28 08:37:30;;;;;;;11.27;5.40;;;2.10;99.90;;;;;;4917665;28;20593;-82
2020/12/28 08:39:54;;;;;;;11.45;5.28;;;2.10;99.90;;;;;;4914351;28;20629;-82
2020/12/28 08:42:28;;;;;;;10.27;5.28;;;2.10;99.90;;;;;;4918931;28;20111;-81
2020/12/28 08:44:52;;;;;;;10.65;4.38;;;2.10;99.90;;;;;;4915604;28;20100;-83
2020/12/28 08:47:15;;;;;;;9.23;4.47;;;2.10;99.90;;;;;;4918598;28;20144;-82
2020/12/28 08:49:42;;;;;;;13.73;5.53;;;2.20;99.90;;;;;;4916913;28;20091;-83
2020/12/28 08:52:08;;;;;;;11.63;5.05;;;2.10;99.90;;;;;;4906225;28;20090;-81
2020/12/28 08:54:32;;;;;;;13.27;6.18;;;2.20;99.90;;;;;;4917166;28;20147;-82
2020/12/28 08:56:56;;;;;;;9.88;4.93;;;2.20;99.90;;;;;;4917785;28;20156;-82
2020/12/28 08:59:19;;;;;;;11.07;5.13;;;2.20;99.90;;;;;;4918790;28;20421;-82
2020/12/28 09:01:53;;;;;;;11.40;4.40;;;2.20;99.90;;;;;;4876593;28;20865;-80
2020/12/28 09:04:25;;;;;;;13.50;3.97;;;2.20;99.90;;;;;;4861835;28;20108;-82
2020/12/28 09:07:28;;;;;;;11.25;5.32;;;2.30;99.90;;;;;;4850069;28;20128;-81
2020/12/28 09:10:02;;;;;;;12.80;5.65;;;2.30;99.90;;;;;;4867235;28;20134;-82
2020/12/28 09:12:51;;;;;;;10.35;4.55;;;2.20;99.90;;;;;;4864782;28;20085;-82
2020/12/28 09:15:40;;;;;;;11.50;5.22;;;2.30;99.90;;;;;;4859527;28;20536;-82
2020/12/28 09:18:32;;;;;;;12.02;4.78;;;2.30;99.90;;;;;;4861424;28;20107;-82
2020/12/28 09:21:19;;;;;;;11.38;4.95;;;2.30;99.90;;;;;;4855915;28;20138;-82
2020/12/28 09:33:50;;;;;;;10.73;5.38;;;2.40;99.90;;;;;;4862826;28;20097;-82
2020/12/28 09:36:23;;;;;;;10.07;5.00;;;2.50;99.90;;;;;;4856432;28;20090;-81
2020/12/28 09:52:28;;;;;;;13.90;4.97;;;2.50;99.90;;;;;;4848788;28;20155;-85
2020/12/28 10:12:49;;;;;;;12.70;5.00;;;2.90;99.90;;;;;;4896260;27;24473;-82
2020/12/28 10:35:05;;;;;;;14.48;6.30;;;2.90;99.90;;;;;;4881171;27;20549;-80
2020/12/28 10:37:43;;;;;;;13.57;4.65;;;2.90;99.90;;;;;;4894063;27;20093;-81
2020/12/28 10:40:28;;;;;;;12.05;5.40;;;3.00;99.90;;;;;;4862566;28;20087;-79
2020/12/28 10:43:15;;;;;;;13.43;4.50;;;3.00;99.90;;;;;;4871071;28;20165;-80
2020/12/28 10:45:38;;;;;;;8.77;4.03;;;2.90;99.90;;;;;;4877946;28;20496;-79
2020/12/28 10:48:01;;;;;;;13.85;4.72;;;2.90;99.90;;;;;;4925673;28;20092;-82
2020/12/28 10:50:25;;;;;;;9.68;4.93;;;2.90;99.90;;;;;;4925005;28;20582;-81
2020/12/28 10:52:48;;;;;;;14.35;5.10;;;3.00;99.90;;;;;;4925185;28;20103;-81
2020/12/28 10:55:12;;;;;;;12.27;4.53;;;3.00;99.90;;;;;;4926684;28;20160;-80
2020/12/28 10:57:35;;;;;;;10.32;4.55;;;3.00;99.90;;;;;;4929318;28;20089;-80
2020/12/28 10:59:58;;;;;;;7.63;4.78;;;3.00;99.90;;;;;;4928268;28;20167;-80
2020/12/28 11:02:21;;;;;;;13.90;5.20;;;3.00;99.90;;;;;;4926663;28;20083;-81
2020/12/28 11:04:44;;;;;;;10.55;4.40;;;3.10;99.90;;;;;;4932508;28;20127;-81
2020/12/28 11:07:09;;;;;;;11.07;4.93;;;3.10;99.90;;;;;;4917201;28;20465;-80
2020/12/28 11:09:32;;;;;;;12.55;5.82;;;3.10;99.90;;;;;;4923116;28;20136;-82
2020/12/28 11:11:56;;;;;;;10.02;4.75;;;3.10;99.90;;;;;;4921671;28;20133;-80
2020/12/28 11:14:20;;;;;;;11.75;4.80;;;3.10;99.90;;;;;;4927549;28;20149;-81
2020/12/28 11:16:44;;;;;;;11.35;4.78;;;3.10;99.90;;;;;;4926741;28;20450;-80
2020/12/28 11:19:08;;;;;;;13.23;5.70;;;3.10;99.90;;;;;;4925308;28;20140;-81
2020/12/28 11:21:31;;;;;;;13.25;4.72;;;3.20;99.90;;;;;;4900477;28;20092;-81
2020/12/28 11:24:01;;;;;;;8.68;4.15;;;3.20;99.90;;;;;;4914680;28;20087;-82
2020/12/28 11:26:27;;;;;;;12.02;4.40;;;3.20;99.90;;;;;;4909668;28;20091;-81
2020/12/28 11:28:50;;;;;;;10.40;4.68;;;3.30;99.90;;;;;;4915999;28;20091;-81
2020/12/28 11:31:15;;;;;;;10.35;4.72;;;3.30;99.90;;;;;;4917337;28;20095;-82
2020/12/28 11:33:38;;;;;;;11.57;5.07;;;3.30;99.90;;;;;;4900078;28;20097;-80
2020/12/28 11:36:02;;;;;;;11.27;4.93;;;3.30;99.90;;;;;;4905443;28;20122;-80
2020/12/28 11:38:25;;;;;;;10.13;5.32;;;3.20;99.90;;;;;;4906678;28;20094;-81
2020/12/28 11:40:51;;;;;;;9.07;4.30;;;;;;;;;;4903003;28;20087;-82
2020/12/28 11:43:14;;;;;;;12.57;5.30;;;3.40;99.90;;;;;;4909519;28;20091;-82
2020/12/28 11:45:38;;;;;;;10.88;4.80;;;3.40;99.90;;;;;;4912031;28;20514;-81
2020/12/28 11:48:00;;;;;;;12.32;5.00;;;3.40;99.90;;;;;;4914142;28;20082;-80
2020/12/28 11:50:23;;;;;;;8.63;4.03;;;3.40;99.90;;;;;;4912724;28;20084;-80
2020/12/28 11:52:47;;;;;;;11.52;4.97;;;3.50;99.90;;;;;;4913093;28;20566;-79
2020/12/28 11:55:11;;;;;;;10.07;4.57;;;3.40;99.90;;;;;;4902796;28;20091;-81
2020/12/28 11:57:44;;;;;;;9.15;4.25;;;3.40;99.90;;;;;;4913051;28;20122;-79
2020/12/28 12:00:08;;;;;;;9.30;4.43;;;3.40;99.90;;;;;;4908766;28;20504;-80
2020/12/28 12:02:31;;;;;;;11.73;5.45;;;3.50;99.90;;;;;;4911944;28;20114;-80
2020/12/28 12:05:00;;;;;;;12.68;4.70;;;3.50;99.90;;;;;;4911328;28;20446;-80
2020/12/28 12:07:31;;;;;;;11.48;4.50;;;3.50;99.90;;;;;;4909661;28;20096;-80
2020/12/28 12:09:58;;;;;;;7.72;4.00;;;3.50;99.90;;;;;;4909802;28;20114;-80
2020/12/28 12:12:22;;;;;;;9.48;4.13;;;3.50;99.90;;;;;;4908743;28;20103;-80
2020/12/28 12:14:48;;;;;;;14.60;5.68;;;3.50;99.90;;;;;;4910728;28;20154;-81
2020/12/28 12:17:11;;;;;;;11.32;4.85;;;3.50;99.90;;;;;;4909990;28;20156;-80
2020/12/28 12:19:35;;;;;;;12.05;4.78;;;3.50;99.90;;;;;;4912139;28;20117;-80
2020/12/28 12:21:58;;;;;;;9.00;4.28;;;3.50;99.90;;;;;;4911045;28;20094;-80
2020/12/28 12:24:20;;;;;;;8.40;3.97;;;3.50;99.90;;;;;;4911894;28;20118;-82
2020/12/28 12:26:44;;;;;;;11.50;4.30;;;3.50;99.90;;;;;;4910204;28;20521;-81
2020/12/28 12:29:08;;;;;;;13.90;4.93;;;3.60;99.90;;;;;;4912244;28;20110;-81
2020/12/28 12:31:32;;;;;;;13.65;5.28;;;3.60;99.90;;;;;;4911135;28;20177;-80
2020/12/28 12:33:55;;;;;;;12.27;4.47;;;3.50;99.90;;;;;;4910227;28;20534;-80
2020/12/28 12:36:19;;;;;;;10.02;4.72;;;3.60;99.90;;;;;;4909543;28;20126;-81
2020/12/28 12:38:44;;;;;;;11.07;4.53;;;3.60;99.90;;;;;;4908864;28;20116;-81
2020/12/28 12:41:07;;;;;;;9.25;4.10;;;3.60;99.90;;;;;;4906512;28;20147;-80
2020/12/28 12:43:30;;;;;;;9.02;4.57;;;3.60;99.90;;;;;;4918270;28;20098;-79
2020/12/28 12:45:52;;;;;;;9.55;3.85;;;3.60;99.90;;;;;;4912006;28;20086;-80
2020/12/28 12:48:18;;;;;;;6.70;3.33;;;3.60;99.90;;;;;;4907878;28;20095;-80
2020/12/28 12:50:42;;;;;;;10.13;4.68;;;3.60;99.90;;;;;;4911379;28;20103;-81
2020/12/28 12:53:05;;;;;;;9.88;4.95;;;3.60;99.90;;;;;;4911485;28;20102;-81
2020/12/28 12:55:29;;;;;;;10.32;4.47;;;3.70;99.90;;;;;;4911524;28;20087;-81
2020/12/28 12:57:52;;;;;;;8.23;3.77;;;3.60;99.90;;;;;;4911344;28;20509;-82
2020/12/28 13:00:18;;;;;;;11.98;4.43;;;3.70;99.90;;;;;;4910184;28;20144;-81
2020/12/28 13:02:43;;;;;;;;;;;3.70;99.90;;;;;;4908596;28;20097;-81
2020/12/28 13:05:10;;;;;;;8.45;4.32;;;3.70;99.90;;;;;;4908721;28;19962;-81
2020/12/28 13:07:33;;;;;;;10.27;4.93;;;;;;;;;;4906081;28;21159;-80
2020/12/28 13:09:56;;;;;;;11.10;5.15;;;;;;;;;;4908399;28;20377;-80
2020/12/28 13:12:19;;;;;;;13.68;4.78;;;3.70;99.90;;;;;;4910494;28;20162;-81
2020/12/28 13:14:42;;;;;;;8.57;4.35;;;3.70;99.90;;;;;;4910593;28;20102;-80
2020/12/28 13:17:06;;;;;;;10.40;4.50;;;3.80;99.90;;;;;;4910558;28;20437;-80
2020/12/28 13:19:30;;;;;;;10.85;4.53;;;3.80;99.90;;;;;;4911095;28;20094;-79
2020/12/28 13:21:54;;;;;;;9.18;4.40;;;2.50;99.90;;;;;;4909783;28;20721;-81
2020/12/28 13:24:17;;;;;;;10.95;4.50;;;3.70;99.90;;;;;;4909640;28;20125;-80
2020/12/28 13:26:41;;;;;;;8.05;4.10;;;3.70;99.90;;;;;;4909460;28;20553;-81
2020/12/28 13:29:04;;;;;;;8.10;4.20;;;3.60;99.90;;;;;;4911058;28;20086;-80
2020/12/28 13:31:27;;;;;;;11.80;4.90;;;3.60;99.90;;;;;;4902760;28;20097;-80
2020/12/28 13:33:49;;;;;;;7.35;3.83;;;3.50;99.90;;;;;;4909221;28;20157;-79
2020/12/28 13:36:12;;;;;;;10.48;4.63;;;3.40;99.90;;;;;;4910991;28;20166;-80
2020/12/28 13:38:36;;;;;;;8.32;4.57;;;;;;;;;;4916378;28;20078;-79
2020/12/28 13:41:00;;;;;;;10.88;4.95;;;3.30;99.90;;;;;;4909713;28;20079;-79
2020/12/28 13:43:23;;;;;;;10.95;4.72;;;3.30;99.90;;;;;;4909549;28;20164;-81
2020/12/28 13:45:46;;;;;;;13.20;4.45;;;3.30;99.90;;;;;;4909612;28;20491;-80
2020/12/28 13:48:09;;;;;;;9.48;4.60;;;3.20;99.90;;;;;;4910954;28;20094;-80